VIVA127 MMAA-MMUN
Flight info
| Callsign | VIVA127 |
|---|---|
| Flight time | N/A |
| Altitude | 37000 |
| Route | AMIDI2B AMIDI UJ16 ALUEN DCT CME UT30 ESTIR DCT PAULE PAULE3G |
| Aircraft | A20N/M-SDE2E3FGHIRWXY/LB1 |
Departure
| Time | 2026-04-26 18:05 |
|---|---|
| Airport | General Juan N. Álvarez International Airport (MMAA) |
Arrival
| Time | N/A |
|---|---|
| Airport | Cancún International Airport (MMUN) |
| Time | Latitude | Longitude | Altitude | Speed | Heading |
|---|---|---|---|---|---|
| 2026-04-26 18:05 | 16.69877 | -99.75546 | 5197 ft | 271 kts | 114° |
| 2026-04-26 18:05 | 16.68958 | -99.73796 | 5840 ft | 277 kts | 122° |
| 2026-04-26 18:05 | 16.67860 | -99.72138 | 6449 ft | 282 kts | 127° |
| 2026-04-26 18:06 | 16.66630 | -99.70510 | 7089 ft | 285 kts | 129° |
| 2026-04-26 18:06 | 16.65358 | -99.68937 | 7749 ft | 286 kts | 130° |
| 2026-04-26 18:06 | 16.64043 | -99.67370 | 8430 ft | 288 kts | 131° |
| 2026-04-26 18:06 | 16.63133 | -99.66337 | 8889 ft | 289 kts | 134° |
| 2026-04-26 18:07 | 16.61667 | -99.64880 | 9517 ft | 292 kts | 137° |
| 2026-04-26 18:07 | 16.60171 | -99.63474 | 9834 ft | 294 kts | 137° |
| 2026-04-26 18:07 | 16.58633 | -99.62048 | 9895 ft | 295 kts | 137° |
| 2026-04-26 18:07 | 16.57610 | -99.61101 | 9909 ft | 302 kts | 137° |
| 2026-04-26 18:08 | 16.55829 | -99.59206 | 9885 ft | 313 kts | 126° |
| 2026-04-26 18:08 | 16.54806 | -99.57295 | 9903 ft | 306 kts | 110° |
| 2026-04-26 18:08 | 16.54357 | -99.55077 | 9980 ft | 328 kts | 92° |
| 2026-04-26 18:08 | 16.54452 | -99.53464 | 10146 ft | 338 kts | 79° |
| 2026-04-26 18:09 | 16.57640 | -99.45529 | 11918 ft | 352 kts | 65° |
| 2026-04-26 18:09 | 16.58667 | -99.43222 | 12479 ft | 354 kts | 65° |
| 2026-04-26 18:10 | 16.59167 | -99.42094 | 12761 ft | 355 kts | 65° |
| 2026-04-26 18:10 | 16.60524 | -99.39018 | 13474 ft | 359 kts | 65° |
| 2026-04-26 18:10 | 16.61567 | -99.36642 | 14027 ft | 362 kts | 65° |
| 2026-04-26 18:10 | 16.62412 | -99.34715 | 14424 ft | 364 kts | 66° |
| 2026-04-26 18:11 | 16.63503 | -99.32224 | 14957 ft | 367 kts | 66° |
| 2026-04-26 18:11 | 16.64572 | -99.29783 | 15454 ft | 371 kts | 66° |
| 2026-04-26 18:11 | 16.65645 | -99.27329 | 15977 ft | 374 kts | 66° |
| 2026-04-26 18:11 | 16.66724 | -99.24862 | 16478 ft | 377 kts | 66° |
| 2026-04-26 18:12 | 16.67818 | -99.22359 | 17003 ft | 380 kts | 66° |
| 2026-04-26 18:12 | 16.68909 | -99.19861 | 17482 ft | 383 kts | 66° |
| 2026-04-26 18:12 | 16.69282 | -99.19007 | 17654 ft | 384 kts | 66° |
| 2026-04-26 18:13 | 16.74650 | -99.06704 | 19689 ft | 395 kts | 66° |
| 2026-04-26 18:13 | 16.75036 | -99.05817 | 19831 ft | 396 kts | 66° |
| 2026-04-26 18:14 | 16.76504 | -99.02448 | 20341 ft | 399 kts | 66° |
| 2026-04-26 18:14 | 16.77683 | -98.99740 | 20772 ft | 401 kts | 65° |
| 2026-04-26 18:14 | 16.78840 | -98.97082 | 21182 ft | 403 kts | 65° |
| 2026-04-26 18:14 | 16.79988 | -98.94443 | 21602 ft | 406 kts | 65° |
| 2026-04-26 18:15 | 16.81468 | -98.90890 | 22165 ft | 409 kts | 69° |
| 2026-04-26 18:15 | 16.82292 | -98.88033 | 22584 ft | 413 kts | 77° |
| 2026-04-26 18:15 | 16.82624 | -98.86069 | 22860 ft | 415 kts | 81° |
| 2026-04-26 18:16 | 16.83215 | -98.80019 | 23647 ft | 421 kts | 84° |